Time;durP1;ratioP1;P1;durP2;ratioP2;P2;SDS_P1;SDS_P2;PMS_P1;PMS_P2;Temp;Humidity;BMP_temperature;BMP_pressure;BME280_temperature;BME280_humidity;BME280_pressure;Samples;Min_cycle;Max_cycle;Signal;HPM_P1;HPM_P2
2021/04/04 00:01:21;;;;;;;9.68;3.58;;;9.50;57.30;;;;;;5011427;28;20135;-61
2021/04/04 00:03:48;;;;;;;8.70;3.78;;;9.60;57.80;;;;;;4992195;28;20439;-62
2021/04/04 00:06:13;;;;;;;5.32;3.72;;;9.60;57.80;;;;;;5010799;28;20073;-61
2021/04/04 00:08:39;;;;;;;8.10;4.25;;;9.60;58.00;;;;;;4991936;28;20064;-62
2021/04/04 00:11:05;;;;;;;8.65;4.00;;;9.50;58.40;;;;;;5011297;28;20166;-62
2021/04/04 00:13:31;;;;;;;7.18;3.10;;;9.40;58.60;;;;;;4992730;28;20066;-60
2021/04/04 00:15:57;;;;;;;6.30;3.30;;;9.50;58.50;;;;;;4993269;28;20483;-61
2021/04/04 00:18:23;;;;;;;8.82;3.42;;;9.50;58.50;;;;;;4993427;28;20091;-62
2021/04/04 00:20:49;;;;;;;10.70;3.80;;;9.50;58.60;;;;;;5010651;28;20465;-63
2021/04/04 00:23:14;;;;;;;11.50;3.97;;;9.40;58.80;;;;;;5010900;28;20105;-62
2021/04/04 00:25:40;;;;;;;12.20;4.93;;;9.40;59.00;;;;;;5010065;28;20025;-61
2021/04/04 00:28:06;;;;;;;11.32;3.70;;;9.30;59.30;;;;;;5011035;28;20097;-62
2021/04/04 00:30:32;;;;;;;8.88;3.50;;;9.40;59.20;;;;;;4992502;28;20401;-62
2021/04/04 00:32:57;;;;;;;9.57;3.60;;;9.30;59.70;;;;;;5009310;28;20030;-63
2021/04/04 00:35:23;;;;;;;8.00;3.50;;;9.20;59.80;;;;;;4993532;28;20459;-62
2021/04/04 00:37:53;;;;;;;10.57;4.22;;;9.20;59.70;;;;;;4992200;28;20053;-61
2021/04/04 00:40:24;;;;;;;7.97;3.75;;;9.10;59.70;;;;;;5010345;28;20022;-62
2021/04/04 00:42:50;;;;;;;8.88;3.20;;;9.10;59.40;;;;;;4991755;28;20198;-62
2021/04/04 00:45:22;;;;;;;8.63;4.32;;;9.10;59.50;;;;;;5009754;28;20152;-62
2021/04/04 00:47:48;;;;;;;10.98;4.10;;;9.00;59.60;;;;;;5009422;28;20530;-61
2021/04/04 00:50:15;;;;;;;7.78;4.07;;;9.00;59.60;;;;;;5010354;28;20030;-61
2021/04/04 00:52:43;;;;;;;9.35;3.22;;;9.10;59.50;;;;;;5009428;28;20037;-62
2021/04/04 00:55:11;;;;;;;8.73;2.92;;;9.10;59.40;;;;;;4992506;28;20026;-61
2021/04/04 00:57:37;;;;;;;8.40;2.92;;;9.10;59.60;;;;;;4991621;28;20042;-61
2021/04/04 01:00:05;;;;;;;11.20;3.22;;;9.10;59.80;;;;;;4992329;28;20072;-61
2021/04/04 01:02:31;;;;;;;9.38;3.70;;;9.10;59.60;;;;;;5009803;28;20485;-61
2021/04/04 01:05:00;;;;;;;10.18;3.88;;;9.20;59.50;;;;;;4991642;28;20132;-62
2021/04/04 01:07:26;;;;;;;6.60;3.40;;;9.10;59.50;;;;;;4993714;28;20034;-61
2021/04/04 01:09:52;;;;;;;6.22;3.42;;;9.10;59.70;;;;;;4979422;28;20041;-61
2021/04/04 01:12:39;;;;;;;5.72;3.78;;;9.00;60.00;;;;;;5013788;28;20034;-61
2021/04/04 01:15:15;;;;;;;6.05;3.35;;;8.80;60.50;;;;;;5014173;28;20105;-62
2021/04/04 01:17:43;;;;;;;7.25;3.85;;;8.70;60.60;;;;;;4995272;28;20062;-61
2021/04/04 01:20:25;;;;;;;9.32;4.90;;;8.80;61.00;;;;;;4996888;28;20459;-62
2021/04/04 01:23:15;;;;;;;11.00;4.20;;;8.70;61.30;;;;;;5013002;28;20030;-61
2021/04/04 01:26:02;;;;;;;9.25;3.97;;;8.70;60.90;;;;;;5012588;28;20124;-60
2021/04/04 01:28:31;;;;;;;9.68;3.80;;;8.70;61.10;;;;;;5013760;28;20037;-62
2021/04/04 01:30:58;;;;;;;10.82;4.20;;;8.70;60.90;;;;;;4994882;28;20022;-61
2021/04/04 01:33:25;;;;;;;9.80;4.40;;;8.60;61.20;;;;;;5013140;28;20030;-62
2021/04/04 01:35:57;;;;;;;11.00;4.43;;;8.40;61.70;;;;;;4994850;28;21382;-62
2021/04/04 01:38:29;;;;;;;8.70;4.82;;;8.50;61.70;;;;;;4995446;28;20073;-62
2021/04/04 01:41:02;;;;;;;9.38;4.57;;;8.50;61.90;;;;;;5012432;28;20113;-62
2021/04/04 01:43:29;;;;;;;6.55;4.05;;;8.40;61.90;;;;;;4995960;28;20517;-62
2021/04/04 01:45:57;;;;;;;9.52;3.97;;;8.30;62.60;;;;;;5013059;28;20193;-62
2021/04/04 01:48:24;;;;;;;9.38;3.85;;;8.10;62.80;;;;;;5013550;28;20467;-62
2021/04/04 01:50:51;;;;;;;11.13;4.43;;;8.20;63.30;;;;;;4994759;28;20025;-62
2021/04/04 01:53:17;;;;;;;9.38;4.55;;;8.20;63.30;;;;;;4995679;28;20088;-61
2021/04/04 01:55:44;;;;;;;8.48;4.00;;;8.10;63.90;;;;;;4994990;28;20117;-61
2021/04/04 01:58:11;;;;;;;10.70;4.60;;;8.30;63.70;;;;;;4995751;28;20083;-61
2021/04/04 02:00:38;;;;;;;12.38;3.95;;;8.00;64.30;;;;;;5012529;28;20034;-62
2021/04/04 02:03:05;;;;;;;10.93;3.70;;;8.10;64.50;;;;;;5012430;28;20026;-62
2021/04/04 02:05:31;;;;;;;10.85;4.38;;;8.00;64.90;;;;;;5013033;28;20034;-62
2021/04/04 02:07:58;;;;;;;12.70;5.40;;;8.10;65.30;;;;;;4994720;28;20603;-61
2021/04/04 02:10:29;;;;;;;10.90;3.85;;;8.10;65.40;;;;;;5012743;28;20026;-62
2021/04/04 02:12:58;;;;;;;9.98;5.75;;;8.20;65.50;;;;;;5012113;28;20029;-62
2021/04/04 02:15:26;;;;;;;12.95;4.60;;;8.20;65.70;;;;;;4995138;28;20029;-62
2021/04/04 02:17:53;;;;;;;12.40;4.95;;;8.30;66.10;;;;;;5012411;28;20071;-62
2021/04/04 02:20:22;;;;;;;12.68;4.85;;;8.10;66.90;;;;;;4994504;28;20044;-60
2021/04/04 02:22:48;;;;;;;18.80;5.00;;;8.10;67.50;;;;;;5012266;28;20339;-61
2021/04/04 02:25:15;;;;;;;18.95;6.22;;;8.00;68.00;;;;;;5012780;28;20030;-60
2021/04/04 02:27:46;;;;;;;16.08;4.78;;;8.00;68.40;;;;;;5011849;28;20046;-62
2021/04/04 02:30:15;;;;;;;13.35;5.72;;;8.10;68.40;;;;;;4995419;28;20085;-61
2021/04/04 02:33:16;;;;;;;14.65;5.70;;;8.00;69.00;;;;;;5011777;28;20029;-61
2021/04/04 02:35:44;;;;;;;10.52;5.75;;;7.90;69.40;;;;;;4969623;28;20050;-61
2021/04/04 02:38:23;;;;;;;13.77;5.35;;;7.90;70.00;;;;;;5012242;28;20046;-62
2021/04/04 02:40:50;;;;;;;12.48;5.38;;;7.90;70.00;;;;;;5011750;28;20022;-61
2021/04/04 02:43:23;;;;;;;12.77;5.68;;;8.00;70.10;;;;;;4994436;28;20037;-61
2021/04/04 02:45:49;;;;;;;11.10;4.60;;;8.00;70.40;;;;;;4994359;28;20041;-62
2021/04/04 02:48:17;;;;;;;9.38;4.82;;;7.90;71.00;;;;;;5012011;28;20458;-64
2021/04/04 02:50:45;;;;;;;16.63;5.38;;;7.90;71.30;;;;;;5011935;28;20032;-61
2021/04/04 02:53:12;;;;;;;15.70;4.60;;;8.00;71.10;;;;;;5011914;28;20026;-61
2021/04/04 02:55:41;;;;;;;16.85;6.00;;;7.90;71.30;;;;;;5011872;28;20037;-62
2021/04/04 02:58:09;;;;;;;17.00;6.38;;;7.90;71.70;;;;;;5012025;28;20443;-62
2021/04/04 03:00:40;;;;;;;12.05;5.10;;;7.90;71.80;;;;;;4993926;28;20030;-61
2021/04/04 03:03:07;;;;;;;18.48;6.45;;;7.70;72.60;;;;;;4993720;28;20048;-62
2021/04/04 03:05:33;;;;;;;13.55;5.57;;;7.70;73.10;;;;;;5011088;28;20325;-61
2021/04/04 03:08:03;;;;;;;14.07;5.13;;;7.70;73.40;;;;;;4993215;28;20076;-61
2021/04/04 03:10:31;;;;;;;16.33;6.18;;;7.60;74.20;;;;;;5011588;28;20475;-60
2021/04/04 03:12:58;;;;;;;13.23;5.88;;;7.50;74.30;;;;;;5010684;28;20113;-61
2021/04/04 03:15:25;;;;;;;11.30;6.30;;;7.50;75.00;;;;;;4978207;28;20030;-61
2021/04/04 03:17:53;;;;;;;12.48;5.20;;;7.50;75.60;;;;;;5010259;28;20030;-61
2021/04/04 03:20:20;;;;;;;16.02;6.57;;;7.60;75.30;;;;;;4994336;28;20029;-61
2021/04/04 03:22:48;;;;;;;15.63;6.55;;;7.40;75.80;;;;;;4993206;28;20054;-61
2021/04/04 03:25:16;;;;;;;17.02;6.38;;;7.50;76.10;;;;;;4993854;28;20045;-61
2021/04/04 03:27:47;;;;;;;15.73;5.10;;;7.50;76.30;;;;;;5010958;28;20034;-62
2021/04/04 03:33:02;;;;;;;15.70;5.35;;;7.50;76.40;;;;;;5010260;28;20379;-61
2021/04/04 03:35:28;;;;;;;16.15;5.85;;;7.50;76.70;;;;;;4993728;28;20108;-61
2021/04/04 03:37:56;;;;;;;19.05;5.72;;;7.30;77.50;;;;;;4992179;28;20080;-60
2021/04/04 03:40:22;;;;;;;12.55;5.22;;;7.30;77.50;;;;;;5011241;28;20084;-61
2021/04/04 03:42:48;;;;;;;9.32;4.50;;;7.30;78.00;;;;;;5010316;28;20034;-62
2021/04/04 03:45:16;;;;;;;11.20;5.13;;;7.40;78.10;;;;;;5011085;28;20104;-61
2021/04/04 03:47:43;;;;;;;12.30;5.50;;;7.40;77.90;;;;;;4993070;28;20450;-62
2021/04/04 03:50:10;;;;;;;18.58;5.35;;;7.30;78.50;;;;;;4992840;28;20073;-62
2021/04/04 03:52:40;;;;;;;17.70;6.03;;;7.40;78.70;;;;;;4993318;28;20084;-61
2021/04/04 03:55:08;;;;;;;15.63;5.85;;;7.40;78.70;;;;;;5005181;28;20073;-61
2021/04/04 03:57:36;;;;;;;11.57;5.80;;;7.40;78.80;;;;;;4993698;28;20034;-61
2021/04/04 04:00:05;;;;;;;10.85;5.25;;;7.30;79.10;;;;;;4992381;28;20036;-61
2021/04/04 04:02:32;;;;;;;23.40;5.57;;;7.50;78.70;;;;;;4992967;28;20091;-62
2021/04/04 04:04:59;;;;;;;16.10;7.38;;;7.40;79.00;;;;;;4991952;28;20451;-61
2021/04/04 04:07:25;;;;;;;15.60;6.30;;;7.20;80.00;;;;;;4992926;28;20069;-61
2021/04/04 04:09:51;;;;;;;13.63;5.18;;;7.30;80.00;;;;;;4992086;28;20061;-62
2021/04/04 04:12:17;;;;;;;14.23;5.65;;;7.20;80.30;;;;;;5010917;28;20030;-61
2021/04/04 04:14:43;;;;;;;18.67;6.57;;;7.20;80.50;;;;;;5010215;28;20022;-61
2021/04/04 04:17:10;;;;;;;14.45;5.20;;;7.20;80.80;;;;;;5010028;28;20034;-61
2021/04/04 04:19:37;;;;;;;18.77;5.60;;;7.20;80.90;;;;;;4992196;28;20048;-61
2021/04/04 04:22:04;;;;;;;24.73;6.03;;;7.00;81.60;;;;;;4991821;28;20677;-61
2021/04/04 04:24:31;;;;;;;20.25;5.57;;;7.10;81.50;;;;;;5010787;28;20057;-61
2021/04/04 04:26:57;;;;;;;19.15;5.55;;;7.10;81.90;;;;;;5009944;28;20124;-62
2021/04/04 04:29:23;;;;;;;18.30;5.93;;;7.10;82.20;;;;;;4992260;28;20104;-61
2021/04/04 04:31:56;;;;;;;13.52;5.55;;;7.10;82.40;;;;;;5009700;28;20058;-62
2021/04/04 04:34:23;;;;;;;16.38;6.28;;;7.10;82.50;;;;;;5010389;28;20037;-62
2021/04/04 04:36:53;;;;;;;15.57;6.55;;;7.10;82.60;;;;;;4991475;28;20034;-62
2021/04/04 04:39:20;;;;;;;14.75;5.90;;;7.00;83.30;;;;;;5010681;28;20050;-62
2021/04/04 04:41:48;;;;;;;23.40;5.95;;;7.00;83.60;;;;;;4991986;28;20030;-61
2021/04/04 04:44:19;;;;;;;14.95;5.47;;;7.10;83.80;;;;;;5010315;28;20477;-60
2021/04/04 04:46:45;;;;;;;17.05;5.53;;;7.00;84.00;;;;;;4992482;28;20041;-62
2021/04/04 04:49:11;;;;;;;15.93;5.53;;;7.00;84.70;;;;;;5009260;28;20034;-61
2021/04/04 04:51:37;;;;;;;17.30;6.57;;;7.00;84.30;;;;;;5010552;28;20034;-61
2021/04/04 04:54:04;;;;;;;16.83;8.52;;;7.10;84.40;;;;;;4991582;28;20422;-61
2021/04/04 04:56:30;;;;;;;19.25;6.40;;;7.10;84.30;;;;;;4992110;28;20037;-61
2021/04/04 04:58:59;;;;;;;16.40;5.90;;;7.00;84.80;;;;;;5009608;28;20113;-62
2021/04/04 05:01:28;;;;;;;12.88;5.57;;;7.00;85.00;;;;;;4991974;28;20037;-63
2021/04/04 05:03:54;;;;;;;19.15;6.25;;;7.10;84.80;;;;;;4991104;28;20080;-62
2021/04/04 05:06:23;;;;;;;16.75;5.40;;;7.10;85.40;;;;;;4992299;28;20042;-61
2021/04/04 05:08:49;;;;;;;14.30;6.15;;;7.10;85.40;;;;;;5009406;28;20053;-61
2021/04/04 05:11:18;;;;;;;19.63;6.00;;;7.10;85.80;;;;;;4992485;28;20033;-62
2021/04/04 05:13:43;;;;;;;16.83;5.95;;;7.10;86.00;;;;;;4992428;28;20140;-61
2021/04/04 05:16:11;;;;;;;14.60;5.65;;;7.20;86.00;;;;;;4990940;28;20137;-61
2021/04/04 05:18:37;;;;;;;15.38;5.75;;;7.20;86.10;;;;;;4991735;28;20026;-62
2021/04/04 05:21:04;;;;;;;14.38;5.97;;;7.20;86.50;;;;;;4992001;28;20179;-61
2021/04/04 05:23:30;;;;;;;14.57;6.25;;;7.30;85.60;;;;;;5009522;28;20030;-61
2021/04/04 05:25:56;;;;;;;10.65;5.32;;;7.40;85.50;;;;;;5009270;28;20132;-61
2021/04/04 05:28:22;;;;;;;17.33;6.60;;;7.50;85.10;;;;;;4992492;28;20333;-61
2021/04/04 05:30:49;;;;;;;15.68;5.88;;;7.50;85.00;;;;;;5009263;28;20117;-62
2021/04/04 05:33:15;;;;;;;13.15;5.85;;;7.60;84.90;;;;;;4991714;28;20467;-61
2021/04/04 05:35:42;;;;;;;19.15;7.07;;;7.50;85.20;;;;;;5010041;28;20084;-62
2021/04/04 05:38:08;;;;;;;14.82;5.72;;;7.70;85.00;;;;;;5008439;28;20310;-61
2021/04/04 05:40:34;;;;;;;21.35;6.20;;;7.70;84.80;;;;;;5009703;28;20412;-62
2021/04/04 05:43:05;;;;;;;14.43;5.25;;;7.60;85.30;;;;;;5008806;28;20075;-62
2021/04/04 05:45:51;;;;;;;15.48;7.13;;;7.60;85.60;;;;;;5009757;28;20022;-61
2021/04/04 05:48:34;;;;;;;16.52;5.90;;;7.60;85.80;;;;;;5009509;28;20172;-63
2021/04/04 05:51:19;;;;;;;14.20;6.88;;;7.70;85.40;;;;;;4991629;28;20037;-60
2021/04/04 05:54:07;;;;;;;14.73;5.60;;;7.70;85.10;;;;;;4992733;28;20041;-61
2021/04/04 05:56:50;;;;;;;13.98;6.68;;;7.80;85.00;;;;;;4995603;28;20034;-61
2021/04/04 05:59:33;;;;;;;14.20;6.15;;;7.80;85.40;;;;;;4995690;28;20037;-61
2021/04/04 06:02:05;;;;;;;19.02;6.43;;;7.80;84.90;;;;;;5011833;28;20029;-62
2021/04/04 06:05:21;;;;;;;15.45;5.55;;;7.80;84.90;;;;;;4978342;28;20061;-61
2021/04/04 06:08:23;;;;;;;14.65;6.07;;;8.00;84.20;;;;;;4942509;28;20073;-61
2021/04/04 06:10:58;;;;;;;14.05;6.88;;;7.90;84.60;;;;;;4975858;28;20034;-61
2021/04/04 06:14:06;;;;;;;17.65;6.13;;;8.00;84.30;;;;;;4993064;28;20216;-62
2021/04/04 06:16:54;;;;;;;17.65;6.80;;;8.10;83.80;;;;;;4993338;28;20031;-61
2021/04/04 06:19:51;;;;;;;24.27;6.30;;;8.10;83.60;;;;;;4975608;28;20105;-62
2021/04/04 06:22:27;;;;;;;18.27;6.13;;;8.20;83.70;;;;;;4961650;28;20126;-62
2021/04/04 06:24:58;;;;;;;16.23;5.93;;;8.20;83.50;;;;;;4975111;28;20053;-62
2021/04/04 06:27:35;;;;;;;17.35;6.60;;;8.40;83.30;;;;;;4992824;28;20041;-62
2021/04/04 06:33:17;;;;;;;12.57;5.93;;;8.50;83.00;;;;;;4997010;28;20114;-61
2021/04/04 06:35:50;;;;;;;18.05;6.18;;;8.50;82.20;;;;;;5011995;28;20041;-62
2021/04/04 06:38:36;;;;;;;14.07;5.95;;;8.70;82.20;;;;;;5011691;28;20058;-62
2021/04/04 06:41:27;;;;;;;15.93;7.07;;;8.80;81.50;;;;;;5006379;28;20026;-61
2021/04/04 06:44:09;;;;;;;14.68;5.80;;;8.80;81.20;;;;;;4994412;28;20025;-61
2021/04/04 06:46:43;;;;;;;22.17;6.63;;;9.00;80.50;;;;;;5011979;28;20034;-62
2021/04/04 06:49:27;;;;;;;16.83;5.65;;;9.00;80.70;;;;;;4993258;28;20034;-62
2021/04/04 06:51:59;;;;;;;14.77;6.32;;;9.10;80.50;;;;;;4994126;28;20021;-61
2021/04/04 06:54:46;;;;;;;16.92;6.00;;;9.20;80.00;;;;;;4994316;28;20064;-62
2021/04/04 06:57:32;;;;;;;20.38;6.05;;;9.20;79.80;;;;;;5011497;28;20042;-61
2021/04/04 07:00:09;;;;;;;20.52;6.85;;;9.20;80.10;;;;;;4993518;28;20033;-61
2021/04/04 07:02:55;;;;;;;12.95;5.88;;;9.10;80.60;;;;;;5011978;28;20040;-62
2021/04/04 07:05:24;;;;;;;22.55;7.35;;;9.30;80.30;;;;;;4979553;28;20483;-66
2021/04/04 07:08:09;;;;;;;17.13;5.70;;;9.40;79.70;;;;;;4993576;28;20069;-62
2021/04/04 07:10:44;;;;;;;14.00;5.47;;;9.50;80.00;;;;;;4994240;28;20052;-63
2021/04/04 07:13:29;;;;;;;19.52;7.18;;;9.60;79.90;;;;;;5010690;28;20034;-62
2021/04/04 07:16:33;;;;;;;20.63;6.15;;;10.10;80.00;;;;;;4993712;28;20379;-61
2021/04/04 07:19:11;;;;;;;15.23;6.55;;;10.60;77.80;;;;;;5010339;28;20022;-61
2021/04/04 07:21:57;;;;;;;17.50;6.20;;;10.60;77.40;;;;;;4994183;28;20025;-61
2021/04/04 07:24:53;;;;;;;15.02;5.68;;;10.80;76.00;;;;;;5011439;28;20022;-61
2021/04/04 07:27:41;;;;;;;19.02;6.38;;;11.30;74.40;;;;;;5010907;28;20076;-61
2021/04/04 07:30:33;;;;;;;22.77;6.13;;;11.60;72.80;;;;;;5010474;28;20058;-61
2021/04/04 07:33:15;;;;;;;14.75;5.53;;;11.80;71.70;;;;;;4992594;28;20029;-61
2021/04/04 07:35:43;;;;;;;;;;;11.90;71.80;;;;;;4993508;28;20030;-61
2021/04/04 07:38:27;;;;;;;21.73;6.95;;;11.90;71.80;;;;;;4992775;28;19922;-62
2021/04/04 07:41:08;;;;;;;12.82;5.78;;;11.80;72.00;;;;;;5011846;28;20371;-62
2021/04/04 07:43:50;;;;;;;16.10;5.82;;;12.20;70.90;;;;;;5011030;28;20030;-61
2021/04/04 07:46:25;;;;;;;16.70;6.30;;;12.50;69.90;;;;;;4992912;28;20137;-61
2021/04/04 07:49:00;;;;;;;18.13;6.68;;;12.70;70.80;;;;;;5010993;28;20152;-63
2021/04/04 07:51:33;;;;;;;19.50;5.95;;;13.30;69.10;;;;;;4993657;28;20021;-62
2021/04/04 07:54:08;;;;;;;12.93;5.38;;;13.60;67.00;;;;;;5010669;28;20148;-63
2021/04/04 07:56:51;;;;;;;12.00;6.50;;;13.60;66.20;;;;;;4993237;28;20029;-62
2021/04/04 07:59:35;;;;;;;16.52;6.50;;;13.50;66.60;;;;;;4992525;28;20682;-62
2021/04/04 08:02:19;;;;;;;20.10;6.45;;;13.60;66.70;;;;;;5010228;28;20064;-60
2021/04/04 08:04:51;;;;;;;18.08;6.25;;;13.80;65.40;;;;;;5010758;28;20061;-61
2021/04/04 08:07:20;;;;;;;23.80;5.85;;;13.80;65.70;;;;;;5009473;28;20042;-61
2021/04/04 08:09:58;;;;;;;19.08;6.88;;;13.80;66.40;;;;;;5010821;28;20037;-61
2021/04/04 08:12:30;;;;;;;17.33;6.45;;;14.00;65.80;;;;;;4992633;28;20482;-63
2021/04/04 08:15:05;;;;;;;16.73;7.07;;;14.40;65.10;;;;;;4993067;28;20022;-61
2021/04/04 08:17:32;;;;;;;15.45;5.93;;;14.80;63.70;;;;;;4992471;28;20087;-62
2021/04/04 08:20:13;;;;;;;14.30;6.80;;;15.10;63.10;;;;;;4991745;28;20030;-61
2021/04/04 08:22:43;;;;;;;12.23;5.78;;;15.40;62.50;;;;;;5011102;28;20383;-62
2021/04/04 08:25:19;;;;;;;18.38;7.03;;;15.10;61.10;;;;;;4992256;28;20087;-62
2021/04/04 08:27:54;;;;;;;17.23;6.45;;;15.20;61.60;;;;;;5010712;28;20037;-63
2021/04/04 08:30:36;;;;;;;16.50;6.28;;;15.30;61.10;;;;;;4992469;28;20041;-63
2021/04/04 08:33:23;;;;;;;20.20;6.13;;;15.50;61.60;;;;;;4987420;28;20038;-61
2021/04/04 08:35:53;;;;;;;12.00;4.93;;;15.80;58.90;;;;;;4991146;28;20066;-64
2021/04/04 08:38:19;;;;;;;18.02;7.72;;;15.60;59.70;;;;;;4991382;28;20104;-62
2021/04/04 08:40:47;;;;;;;18.75;5.95;;;15.90;59.10;;;;;;4991935;28;20468;-62
2021/04/04 08:43:15;;;;;;;16.27;6.13;;;15.70;58.10;;;;;;4990630;28;20539;-62
2021/04/04 08:46:06;;;;;;;16.45;6.15;;;15.20;59.40;;;;;;4973128;28;20054;-62
2021/04/04 08:48:33;;;;;;;14.27;6.00;;;15.60;58.70;;;;;;4973514;28;20049;-61
2021/04/04 08:51:03;;;;;;;17.98;5.88;;;16.20;57.60;;;;;;4973329;28;20065;-62
2021/04/04 08:53:31;;;;;;;15.95;5.43;;;16.40;56.50;;;;;;4973374;28;20029;-62
2021/04/04 08:55:59;;;;;;;15.77;6.47;;;16.50;56.80;;;;;;4990453;28;20448;-62
2021/04/04 08:58:36;;;;;;;12.65;6.38;;;16.90;56.40;;;;;;4972642;28;20054;-62
2021/04/04 09:01:20;;;;;;;18.38;7.72;;;16.60;57.10;;;;;;4972015;28;20026;-62
2021/04/04 09:03:55;;;;;;;13.02;5.53;;;17.20;57.50;;;;;;5002046;28;20479;-63
2021/04/04 09:06:21;;;;;;;14.57;5.93;;;17.30;55.30;;;;;;4993199;28;20351;-63
2021/04/04 09:08:49;;;;;;;17.70;5.88;;;17.50;55.00;;;;;;4991985;28;20072;-62
2021/04/04 09:11:16;;;;;;;12.10;5.35;;;17.30;54.80;;;;;;4991531;28;20048;-62
2021/04/04 09:13:43;;;;;;;13.77;6.13;;;17.80;54.00;;;;;;4992315;28;20451;-63
2021/04/04 09:16:14;;;;;;;15.18;6.18;;;17.70;53.70;;;;;;5009843;28;20029;-62
2021/04/04 09:18:49;;;;;;;18.00;6.00;;;17.00;53.60;;;;;;4992500;28;20121;-62
2021/04/04 09:21:15;;;;;;;18.02;6.00;;;16.40;54.90;;;;;;4991734;28;20033;-62
2021/04/04 09:23:45;;;;;;;17.65;6.88;;;16.30;56.90;;;;;;4991799;28;20029;-62
2021/04/04 09:26:14;;;;;;;23.63;7.15;;;16.10;55.80;;;;;;5009553;28;20030;-61
2021/04/04 09:28:41;;;;;;;22.33;7.50;;;16.70;55.60;;;;;;4994400;28;20026;-63
2021/04/04 09:31:31;;;;;;;13.23;5.80;;;16.70;55.00;;;;;;5013169;28;20026;-62
2021/04/04 09:34:10;;;;;;;11.32;5.70;;;17.50;54.40;;;;;;4971995;28;20034;-63
2021/04/04 09:36:40;;;;;;;16.83;6.03;;;17.40;53.50;;;;;;4994340;28;20041;-62
2021/04/04 09:39:09;;;;;;;17.25;5.75;;;17.00;53.90;;;;;;4993255;28;20054;-62
2021/04/04 09:41:37;;;;;;;17.63;6.47;;;17.00;54.10;;;;;;4960798;28;20138;-62
2021/04/04 09:44:05;;;;;;;20.42;7.53;;;16.70;54.50;;;;;;4975756;28;20041;-62
2021/04/04 09:46:30;;;;;;;17.20;6.53;;;16.40;54.60;;;;;;4976053;28;20065;-61
2021/04/04 09:48:56;;;;;;;17.80;6.07;;;16.30;55.20;;;;;;4993417;28;20026;-62
2021/04/04 09:51:22;;;;;;;16.83;6.18;;;16.00;55.50;;;;;;4975601;28;20034;-61
2021/04/04 09:53:52;;;;;;;19.10;5.95;;;16.10;55.60;;;;;;4975820;28;20030;-62
2021/04/04 09:56:31;;;;;;;16.85;5.93;;;15.90;55.90;;;;;;4993155;28;20034;-62
2021/04/04 09:59:01;;;;;;;14.27;6.57;;;15.50;56.50;;;;;;4976026;28;20031;-62
2021/04/04 10:01:28;;;;;;;18.38;6.70;;;15.50;56.40;;;;;;4993209;28;20080;-61
2021/04/04 10:04:01;;;;;;;19.73;6.65;;;15.30;56.60;;;;;;5005485;28;20049;-63
2021/04/04 10:06:28;;;;;;;20.00;5.80;;;15.00;57.20;;;;;;4994432;28;20097;-63
2021/04/04 10:08:56;;;;;;;14.23;5.80;;;15.20;59.50;;;;;;5012858;28;20420;-63
2021/04/04 10:11:23;;;;;;;20.60;6.35;;;15.20;58.50;;;;;;5012764;28;20113;-63
2021/04/04 10:13:48;;;;;;;13.10;5.80;;;15.20;57.90;;;;;;4997918;28;20068;-62
2021/04/04 10:16:19;;;;;;;16.33;5.93;;;15.10;57.60;;;;;;5010036;28;20092;-64
2021/04/04 10:19:12;;;;;;;14.47;7.10;;;15.10;57.80;;;;;;5013267;28;20348;-63
2021/04/04 10:21:40;;;;;;;14.10;6.68;;;15.10;57.60;;;;;;5011609;28;20022;-62
2021/04/04 10:24:32;;;;;;;16.05;6.93;;;15.20;57.40;;;;;;5012234;28;20431;-62
2021/04/04 10:27:16;;;;;;;;;;;15.10;57.10;;;;;;5013156;28;20120;-62
2021/04/04 10:29:42;;;;;;;12.63;6.57;;;15.00;57.20;;;;;;5011483;28;20018;-62
2021/04/04 10:32:08;;;;;;;21.92;7.10;;;15.10;56.90;;;;;;5011817;28;20120;-62
2021/04/04 10:34:45;;;;;;;19.63;7.50;;;14.60;57.80;;;;;;5012142;28;20112;-62
2021/04/04 10:37:20;;;;;;;13.02;7.00;;;14.30;58.20;;;;;;4993973;28;20118;-63
2021/04/04 10:39:55;;;;;;;19.15;7.00;;;14.40;58.80;;;;;;4994235;28;20108;-64
2021/04/04 10:42:21;;;;;;;22.60;8.50;;;14.60;58.90;;;;;;5011697;28;20062;-63
2021/04/04 10:44:48;;;;;;;15.55;6.90;;;14.30;59.40;;;;;;4994249;28;20112;-63
2021/04/04 10:47:21;;;;;;;12.80;6.07;;;14.40;58.90;;;;;;4992756;28;20153;-62
2021/04/04 10:49:50;;;;;;;15.23;7.60;;;14.40;59.30;;;;;;4993557;28;20036;-62
2021/04/04 10:52:19;;;;;;;14.77;6.13;;;14.20;58.90;;;;;;5011373;28;20022;-61
2021/04/04 10:54:45;;;;;;;16.50;6.63;;;14.20;59.30;;;;;;5011845;28;20030;-62
2021/04/04 10:57:11;;;;;;;13.45;6.38;;;14.20;59.40;;;;;;4993543;28;20384;-62
2021/04/04 10:59:36;;;;;;;17.70;6.50;;;14.00;59.80;;;;;;5011844;28;20125;-62
2021/04/04 11:02:03;;;;;;;20.48;6.90;;;13.90;59.60;;;;;;4994465;28;20508;-62
2021/04/04 11:04:32;;;;;;;20.67;6.95;;;14.00;59.60;;;;;;4994115;28;20054;-63
2021/04/04 11:07:02;;;;;;;15.68;6.10;;;13.90;59.40;;;;;;4974914;28;20081;-62
2021/04/04 11:09:27;;;;;;;15.80;7.05;;;14.10;59.80;;;;;;4974172;28;20587;-63
2021/04/04 11:12:00;;;;;;;17.48;5.97;;;14.10;59.60;;;;;;4996390;28;20448;-63
2021/04/04 11:14:29;;;;;;;20.27;6.75;;;14.00;60.00;;;;;;4973436;28;20368;-63
2021/04/04 11:17:00;;;;;;;18.45;6.95;;;14.40;59.20;;;;;;4997401;28;20026;-62
2021/04/04 11:19:27;;;;;;;14.07;5.70;;;14.50;58.80;;;;;;4992405;28;20084;-62
2021/04/04 11:21:57;;;;;;;19.65;6.25;;;15.20;58.40;;;;;;4977892;28;20022;-51
2021/04/04 11:24:23;;;;;;;14.70;5.25;;;16.30;62.60;;;;;;4993233;28;20498;-51
2021/04/04 11:26:50;;;;;;;10.48;4.78;;;16.30;63.00;;;;;;5011531;28;20045;-52
2021/04/04 11:29:18;;;;;;;13.48;4.70;;;17.10;60.50;;;;;;5010841;28;20026;-49
2021/04/04 11:31:49;;;;;;;11.82;5.55;;;17.20;59.30;;;;;;5007851;28;20076;-62
2021/04/04 11:34:38;;;;;;;11.90;5.07;;;17.10;56.00;;;;;;4981753;28;20328;-62
2021/04/04 11:37:05;;;;;;;15.90;6.57;;;16.60;54.50;;;;;;5007972;28;20041;-66
2021/04/04 11:39:32;;;;;;;18.88;7.38;;;16.50;58.20;;;;;;4978271;28;20057;-62
2021/04/04 11:42:04;;;;;;;20.25;7.32;;;16.60;57.10;;;;;;4978411;28;20468;-63
2021/04/04 11:44:38;;;;;;;15.73;6.85;;;16.30;54.80;;;;;;4979024;28;20231;-62
2021/04/04 11:47:16;;;;;;;16.73;6.90;;;16.60;55.20;;;;;;4973264;28;20049;-62
2021/04/04 11:49:48;;;;;;;18.45;7.72;;;16.40;54.30;;;;;;4971706;28;20428;-62
2021/04/04 11:52:16;;;;;;;17.83;7.25;;;15.90;55.40;;;;;;4970251;28;20388;-62
2021/04/04 11:54:48;;;;;;;16.85;7.03;;;15.80;55.30;;;;;;4970585;28;20062;-62
2021/04/04 11:57:17;;;;;;;15.02;6.68;;;15.70;55.20;;;;;;4976932;28;20037;-62
2021/04/04 11:59:43;;;;;;;14.93;7.00;;;15.50;55.80;;;;;;4990243;28;20086;-62
2021/04/04 12:02:12;;;;;;;16.88;7.45;;;15.50;55.80;;;;;;4977111;28;20519;-63
2021/04/04 12:04:46;;;;;;;19.63;7.47;;;15.40;55.90;;;;;;4986596;28;20034;-62
2021/04/04 12:07:18;;;;;;;13.73;6.63;;;15.10;56.00;;;;;;4991147;28;20061;-62
2021/04/04 12:09:46;;;;;;;19.60;7.75;;;14.40;57.00;;;;;;4990280;28;20053;-62
2021/04/04 12:12:12;;;;;;;12.48;6.65;;;14.20;56.80;;;;;;4991120;28;20192;-61
2021/04/04 12:14:45;;;;;;;14.40;7.05;;;14.30;57.40;;;;;;4989158;28;20441;-62
2021/04/04 12:17:11;;;;;;;18.27;7.57;;;14.40;56.60;;;;;;4971118;28;20034;-61
2021/04/04 12:19:36;;;;;;;15.95;7.93;;;14.60;56.20;;;;;;4971277;28;20027;-62
2021/04/04 12:22:02;;;;;;;15.00;7.28;;;14.60;55.40;;;;;;4984525;28;20415;-62
2021/04/04 12:24:47;;;;;;;12.77;7.18;;;14.90;55.00;;;;;;4990582;28;20057;-61
2021/04/04 12:27:15;;;;;;;24.98;8.15;;;15.70;53.90;;;;;;4987779;28;20045;-64
2021/04/04 12:29:46;;;;;;;18.38;8.15;;;15.50;53.20;;;;;;4990222;28;20034;-62
2021/04/04 12:32:33;;;;;;;15.05;8.20;;;15.80;53.00;;;;;;4988731;28;20030;-63
2021/04/04 12:35:07;;;;;;;18.48;7.78;;;16.80;52.40;;;;;;4991255;28;20038;-62
2021/04/04 12:37:36;;;;;;;18.58;7.63;;;17.60;50.20;;;;;;4989010;28;20041;-63
2021/04/04 12:40:06;;;;;;;14.10;7.60;;;17.70;50.00;;;;;;4989874;28;20542;-62
2021/04/04 12:42:33;;;;;;;15.63;7.40;;;18.00;49.50;;;;;;4989485;28;20380;-61
2021/04/04 12:45:07;;;;;;;15.80;7.95;;;18.00;49.10;;;;;;4990796;28;20026;-62
2021/04/04 12:47:33;;;;;;;19.85;8.00;;;18.10;48.80;;;;;;4990023;28;20117;-63
2021/04/04 12:50:02;;;;;;;17.42;8.15;;;18.90;48.10;;;;;;4991017;28;20023;-62
2021/04/04 12:52:35;;;;;;;20.05;8.45;;;18.50;48.00;;;;;;4989136;28;20042;-62
2021/04/04 12:55:25;;;;;;;14.88;8.00;;;18.00;48.20;;;;;;4990957;28;20038;-63
2021/04/04 12:58:05;;;;;;;14.30;8.30;;;18.40;47.30;;;;;;4989144;28;20447;-62
2021/04/04 13:00:41;;;;;;;20.15;8.60;;;18.20;48.00;;;;;;4989877;28;20491;-62
2021/04/04 13:03:12;;;;;;;13.45;8.32;;;18.10;48.60;;;;;;4990531;28;20057;-62
2021/04/04 13:05:47;;;;;;;20.55;9.63;;;17.80;49.00;;;;;;4993942;28;20026;-63
2021/04/04 13:08:20;;;;;;;20.05;8.15;;;17.90;48.60;;;;;;4994653;28;20518;-68
2021/04/04 13:10:48;;;;;;;18.17;8.15;;;18.40;48.20;;;;;;4993055;28;20073;-63
2021/04/04 13:13:20;;;;;;;18.45;7.93;;;18.60;48.30;;;;;;4992298;28;20018;-62